sensor_id;sensor_type;location;lat;lon;timestamp;P1;durP1;ratioP1;P2;durP2;ratioP2
4043;SDS011;2036;51.578;7.108;2022-07-22T00:01:37;628.03;;;582.70;;
4043;SDS011;2036;51.578;7.108;2022-07-22T00:04:03;678.40;;;629.43;;
4043;SDS011;2036;51.578;7.108;2022-07-22T00:06:31;644.63;;;597.17;;
4043;SDS011;2036;51.578;7.108;2022-07-22T00:08:57;646.77;;;598.73;;
4043;SDS011;2036;51.578;7.108;2022-07-22T00:11:23;686.67;;;636.30;;
4043;SDS011;2036;51.578;7.108;2022-07-22T00:13:53;665.77;;;617.43;;
4043;SDS011;2036;51.578;7.108;2022-07-22T00:16:18;683.53;;;633.73;;
4043;SDS011;2036;51.578;7.108;2022-07-22T00:18:44;646.20;;;598.10;;
4043;SDS011;2036;51.578;7.108;2022-07-22T00:21:10;648.27;;;600.73;;
4043;SDS011;2036;51.578;7.108;2022-07-22T00:23:36;634.97;;;587.37;;
4043;SDS011;2036;51.578;7.108;2022-07-22T00:26:03;691.77;;;641.43;;
4043;SDS011;2036;51.578;7.108;2022-07-22T00:28:28;685.93;;;635.20;;
4043;SDS011;2036;51.578;7.108;2022-07-22T00:30:54;659.80;;;611.83;;
4043;SDS011;2036;51.578;7.108;2022-07-22T00:33:22;637.63;;;590.17;;
4043;SDS011;2036;51.578;7.108;2022-07-22T00:35:49;665.77;;;616.17;;
4043;SDS011;2036;51.578;7.108;2022-07-22T00:38:15;686.83;;;636.33;;
4043;SDS011;2036;51.578;7.108;2022-07-22T00:40:41;674.37;;;623.77;;
4043;SDS011;2036;51.578;7.108;2022-07-22T00:43:10;664.50;;;614.93;;
4043;SDS011;2036;51.578;7.108;2022-07-22T00:45:39;663.00;;;612.70;;
4043;SDS011;2036;51.578;7.108;2022-07-22T00:48:06;667.73;;;617.17;;
4043;SDS011;2036;51.578;7.108;2022-07-22T00:50:32;677.10;;;626.03;;
4043;SDS011;2036;51.578;7.108;2022-07-22T00:52:58;661.97;;;612.47;;
4043;SDS011;2036;51.578;7.108;2022-07-22T00:55:24;682.37;;;632.40;;
4043;SDS011;2036;51.578;7.108;2022-07-22T00:57:50;670.27;;;620.73;;
4043;SDS011;2036;51.578;7.108;2022-07-22T01:00:17;681.73;;;631.83;;
4043;SDS011;2036;51.578;7.108;2022-07-22T01:02:45;682.07;;;631.67;;
4043;SDS011;2036;51.578;7.108;2022-07-22T01:05:12;685.70;;;635.70;;
4043;SDS011;2036;51.578;7.108;2022-07-22T01:07:38;705.30;;;653.30;;
4043;SDS011;2036;51.578;7.108;2022-07-22T01:10:04;685.33;;;634.73;;
4043;SDS011;2036;51.578;7.108;2022-07-22T01:12:31;732.37;;;679.00;;
4043;SDS011;2036;51.578;7.108;2022-07-22T01:14:57;734.37;;;681.20;;
4043;SDS011;2036;51.578;7.108;2022-07-22T01:17:23;703.93;;;651.90;;
4043;SDS011;2036;51.578;7.108;2022-07-22T01:19:49;735.63;;;682.97;;
4043;SDS011;2036;51.578;7.108;2022-07-22T01:22:15;694.20;;;644.33;;
4043;SDS011;2036;51.578;7.108;2022-07-22T01:24:41;756.53;;;702.17;;
4043;SDS011;2036;51.578;7.108;2022-07-22T01:27:08;741.97;;;687.23;;
4043;SDS011;2036;51.578;7.108;2022-07-22T01:29:34;723.63;;;671.73;;
4043;SDS011;2036;51.578;7.108;2022-07-22T01:32:00;713.63;;;661.00;;
4043;SDS011;2036;51.578;7.108;2022-07-22T01:34:26;697.17;;;645.77;;
4043;SDS011;2036;51.578;7.108;2022-07-22T01:36:52;734.73;;;681.47;;
4043;SDS011;2036;51.578;7.108;2022-07-22T01:39:18;744.30;;;690.40;;
4043;SDS011;2036;51.578;7.108;2022-07-22T01:41:44;742.17;;;687.23;;
4043;SDS011;2036;51.578;7.108;2022-07-22T01:44:10;742.77;;;689.90;;
4043;SDS011;2036;51.578;7.108;2022-07-22T01:46:36;708.83;;;657.13;;
4043;SDS011;2036;51.578;7.108;2022-07-22T01:49:02;740.20;;;686.50;;
4043;SDS011;2036;51.578;7.108;2022-07-22T01:51:28;706.77;;;654.23;;
4043;SDS011;2036;51.578;7.108;2022-07-22T01:53:54;706.93;;;654.70;;
4043;SDS011;2036;51.578;7.108;2022-07-22T01:56:20;717.87;;;664.97;;
4043;SDS011;2036;51.578;7.108;2022-07-22T01:58:46;745.10;;;691.20;;
4043;SDS011;2036;51.578;7.108;2022-07-22T02:01:12;718.70;;;666.10;;
4043;SDS011;2036;51.578;7.108;2022-07-22T02:03:42;786.23;;;729.33;;
4043;SDS011;2036;51.578;7.108;2022-07-22T02:06:07;784.70;;;727.67;;
4043;SDS011;2036;51.578;7.108;2022-07-22T02:08:33;732.87;;;678.97;;
4043;SDS011;2036;51.578;7.108;2022-07-22T02:10:59;725.07;;;672.83;;
4043;SDS011;2036;51.578;7.108;2022-07-22T02:13:25;738.30;;;683.87;;
4043;SDS011;2036;51.578;7.108;2022-07-22T02:15:51;758.77;;;703.53;;
4043;SDS011;2036;51.578;7.108;2022-07-22T02:18:18;763.53;;;706.90;;
4043;SDS011;2036;51.578;7.108;2022-07-22T02:20:44;746.93;;;692.30;;
4043;SDS011;2036;51.578;7.108;2022-07-22T02:23:11;749.70;;;694.57;;
4043;SDS011;2036;51.578;7.108;2022-07-22T02:25:38;749.43;;;695.33;;
4043;SDS011;2036;51.578;7.108;2022-07-22T02:28:05;771.53;;;714.93;;
4043;SDS011;2036;51.578;7.108;2022-07-22T02:30:31;785.20;;;728.30;;
4043;SDS011;2036;51.578;7.108;2022-07-22T02:32:57;785.17;;;728.23;;
4043;SDS011;2036;51.578;7.108;2022-07-22T02:35:24;763.37;;;707.53;;
4043;SDS011;2036;51.578;7.108;2022-07-22T02:37:50;772.47;;;715.73;;
4043;SDS011;2036;51.578;7.108;2022-07-22T02:40:16;771.90;;;715.50;;
4043;SDS011;2036;51.578;7.108;2022-07-22T02:42:42;746.77;;;691.97;;
4043;SDS011;2036;51.578;7.108;2022-07-22T02:45:10;748.47;;;694.03;;
4043;SDS011;2036;51.578;7.108;2022-07-22T02:47:50;802.80;;;744.63;;
4043;SDS011;2036;51.578;7.108;2022-07-22T02:50:18;772.23;;;716.10;;
4043;SDS011;2036;51.578;7.108;2022-07-22T02:52:44;778.43;;;721.73;;
4043;SDS011;2036;51.578;7.108;2022-07-22T02:55:10;810.30;;;750.97;;
4043;SDS011;2036;51.578;7.108;2022-07-22T02:57:37;763.13;;;706.93;;
4043;SDS011;2036;51.578;7.108;2022-07-22T03:00:04;760.67;;;705.87;;
4043;SDS011;2036;51.578;7.108;2022-07-22T03:02:33;793.03;;;733.97;;
4043;SDS011;2036;51.578;7.108;2022-07-22T03:05:00;818.93;;;759.83;;
4043;SDS011;2036;51.578;7.108;2022-07-22T03:07:26;793.07;;;734.97;;
4043;SDS011;2036;51.578;7.108;2022-07-22T03:09:52;818.53;;;758.90;;
4043;SDS011;2036;51.578;7.108;2022-07-22T03:12:18;781.07;;;724.07;;
4043;SDS011;2036;51.578;7.108;2022-07-22T03:14:44;779.60;;;722.20;;
4043;SDS011;2036;51.578;7.108;2022-07-22T03:17:09;827.53;;;766.33;;
4043;SDS011;2036;51.578;7.108;2022-07-22T03:19:35;797.57;;;738.67;;
4043;SDS011;2036;51.578;7.108;2022-07-22T03:22:01;770.63;;;715.03;;
4043;SDS011;2036;51.578;7.108;2022-07-22T03:24:27;820.90;;;762.00;;
4043;SDS011;2036;51.578;7.108;2022-07-22T03:26:53;802.03;;;744.00;;
4043;SDS011;2036;51.578;7.108;2022-07-22T03:29:19;783.37;;;726.23;;
4043;SDS011;2036;51.578;7.108;2022-07-22T03:31:45;776.27;;;719.07;;
4043;SDS011;2036;51.578;7.108;2022-07-22T03:34:11;834.63;;;773.53;;
4043;SDS011;2036;51.578;7.108;2022-07-22T03:36:36;797.13;;;739.70;;
4043;SDS011;2036;51.578;7.108;2022-07-22T03:39:02;769.90;;;713.57;;
4043;SDS011;2036;51.578;7.108;2022-07-22T03:41:29;768.03;;;712.03;;
4043;SDS011;2036;51.578;7.108;2022-07-22T03:43:54;778.47;;;720.53;;
4043;SDS011;2036;51.578;7.108;2022-07-22T03:46:21;775.23;;;717.57;;
4043;SDS011;2036;51.578;7.108;2022-07-22T03:48:47;775.70;;;716.80;;
4043;SDS011;2036;51.578;7.108;2022-07-22T03:51:13;816.67;;;757.27;;
4043;SDS011;2036;51.578;7.108;2022-07-22T03:53:38;769.80;;;712.60;;
4043;SDS011;2036;51.578;7.108;2022-07-22T03:56:05;811.70;;;752.43;;
4043;SDS011;2036;51.578;7.108;2022-07-22T03:58:32;807.60;;;749.43;;
4043;SDS011;2036;51.578;7.108;2022-07-22T04:00:58;792.83;;;735.43;;
4043;SDS011;2036;51.578;7.108;2022-07-22T04:03:23;786.07;;;727.27;;
4043;SDS011;2036;51.578;7.108;2022-07-22T04:05:49;820.60;;;761.07;;
4043;SDS011;2036;51.578;7.108;2022-07-22T04:08:16;805.77;;;746.60;;
4043;SDS011;2036;51.578;7.108;2022-07-22T04:10:45;800.10;;;741.27;;
4043;SDS011;2036;51.578;7.108;2022-07-22T04:13:11;785.30;;;726.17;;
4043;SDS011;2036;51.578;7.108;2022-07-22T04:15:37;846.43;;;785.37;;
4043;SDS011;2036;51.578;7.108;2022-07-22T04:18:04;814.17;;;755.20;;
4043;SDS011;2036;51.578;7.108;2022-07-22T04:20:29;790.27;;;731.43;;
4043;SDS011;2036;51.578;7.108;2022-07-22T04:22:55;822.90;;;762.37;;
4043;SDS011;2036;51.578;7.108;2022-07-22T04:25:21;796.63;;;737.57;;
4043;SDS011;2036;51.578;7.108;2022-07-22T04:27:47;794.60;;;735.00;;
4043;SDS011;2036;51.578;7.108;2022-07-22T04:30:13;783.20;;;725.30;;
4043;SDS011;2036;51.578;7.108;2022-07-22T04:32:38;811.93;;;752.83;;
4043;SDS011;2036;51.578;7.108;2022-07-22T04:35:04;792.43;;;733.63;;
4043;SDS011;2036;51.578;7.108;2022-07-22T04:37:30;828.13;;;767.50;;
4043;SDS011;2036;51.578;7.108;2022-07-22T04:39:56;777.57;;;719.90;;
4043;SDS011;2036;51.578;7.108;2022-07-22T04:42:22;751.97;;;695.83;;
4043;SDS011;2036;51.578;7.108;2022-07-22T04:44:48;796.40;;;738.00;;
4043;SDS011;2036;51.578;7.108;2022-07-22T04:47:14;796.73;;;739.47;;
4043;SDS011;2036;51.578;7.108;2022-07-22T04:49:40;809.13;;;749.80;;
4043;SDS011;2036;51.578;7.108;2022-07-22T04:52:05;792.13;;;734.10;;
4043;SDS011;2036;51.578;7.108;2022-07-22T04:54:32;794.03;;;736.67;;
4043;SDS011;2036;51.578;7.108;2022-07-22T04:56:58;794.70;;;735.40;;
4043;SDS011;2036;51.578;7.108;2022-07-22T04:59:24;793.20;;;734.37;;
4043;SDS011;2036;51.578;7.108;2022-07-22T05:01:50;800.97;;;742.23;;
4043;SDS011;2036;51.578;7.108;2022-07-22T05:04:16;777.13;;;719.80;;
4043;SDS011;2036;51.578;7.108;2022-07-22T05:06:41;790.93;;;733.23;;
4043;SDS011;2036;51.578;7.108;2022-07-22T05:09:07;795.57;;;737.80;;
4043;SDS011;2036;51.578;7.108;2022-07-22T05:11:33;782.90;;;726.57;;
4043;SDS011;2036;51.578;7.108;2022-07-22T05:13:59;739.57;;;685.97;;
4043;SDS011;2036;51.578;7.108;2022-07-22T05:16:25;751.80;;;697.17;;
4043;SDS011;2036;51.578;7.108;2022-07-22T05:18:51;744.40;;;689.97;;
4043;SDS011;2036;51.578;7.108;2022-07-22T05:21:17;693.23;;;642.23;;
4043;SDS011;2036;51.578;7.108;2022-07-22T05:23:42;758.63;;;702.40;;
4043;SDS011;2036;51.578;7.108;2022-07-22T05:26:08;708.43;;;656.40;;
4043;SDS011;2036;51.578;7.108;2022-07-22T05:28:34;653.93;;;605.17;;
4043;SDS011;2036;51.578;7.108;2022-07-22T05:31:03;662.23;;;612.83;;
4043;SDS011;2036;51.578;7.108;2022-07-22T05:33:29;638.17;;;590.57;;
4043;SDS011;2036;51.578;7.108;2022-07-22T05:35:55;646.53;;;598.13;;
4043;SDS011;2036;51.578;7.108;2022-07-22T05:38:21;649.17;;;600.57;;
4043;SDS011;2036;51.578;7.108;2022-07-22T05:40:48;646.60;;;598.23;;
4043;SDS011;2036;51.578;7.108;2022-07-22T05:43:14;648.50;;;600.37;;
4043;SDS011;2036;51.578;7.108;2022-07-22T05:45:42;655.13;;;605.50;;
4043;SDS011;2036;51.578;7.108;2022-07-22T05:48:08;625.20;;;578.80;;
4043;SDS011;2036;51.578;7.108;2022-07-22T05:50:33;662.07;;;613.37;;
4043;SDS011;2036;51.578;7.108;2022-07-22T05:53:00;640.33;;;592.37;;
4043;SDS011;2036;51.578;7.108;2022-07-22T05:55:26;648.87;;;601.43;;
4043;SDS011;2036;51.578;7.108;2022-07-22T05:57:52;653.70;;;604.87;;
4043;SDS011;2036;51.578;7.108;2022-07-22T06:00:19;737.73;;;685.50;;
4043;SDS011;2036;51.578;7.108;2022-07-22T06:02:48;765.30;;;710.00;;
4043;SDS011;2036;51.578;7.108;2022-07-22T06:05:14;746.47;;;691.50;;
4043;SDS011;2036;51.578;7.108;2022-07-22T06:07:39;788.40;;;731.23;;
4043;SDS011;2036;51.578;7.108;2022-07-22T06:10:06;765.57;;;710.17;;
4043;SDS011;2036;51.578;7.108;2022-07-22T06:12:32;771.73;;;714.80;;
4043;SDS011;2036;51.578;7.108;2022-07-22T06:14:58;818.87;;;758.93;;
4043;SDS011;2036;51.578;7.108;2022-07-22T06:17:24;819.20;;;758.90;;
4043;SDS011;2036;51.578;7.108;2022-07-22T06:19:52;817.80;;;759.10;;
4043;SDS011;2036;51.578;7.108;2022-07-22T06:22:17;843.83;;;782.40;;
4043;SDS011;2036;51.578;7.108;2022-07-22T06:24:44;816.53;;;757.10;;
4043;SDS011;2036;51.578;7.108;2022-07-22T06:27:10;822.27;;;762.20;;
4043;SDS011;2036;51.578;7.108;2022-07-22T06:29:36;828.67;;;767.67;;
4043;SDS011;2036;51.578;7.108;2022-07-22T06:32:02;848.23;;;787.60;;
4043;SDS011;2036;51.578;7.108;2022-07-22T06:34:28;825.43;;;764.17;;
4043;SDS011;2036;51.578;7.108;2022-07-22T06:36:54;801.10;;;741.43;;
4043;SDS011;2036;51.578;7.108;2022-07-22T06:39:20;844.80;;;783.13;;
4043;SDS011;2036;51.578;7.108;2022-07-22T06:41:46;829.87;;;769.40;;
4043;SDS011;2036;51.578;7.108;2022-07-22T06:44:12;836.50;;;775.10;;
4043;SDS011;2036;51.578;7.108;2022-07-22T06:46:38;855.70;;;792.20;;
4043;SDS011;2036;51.578;7.108;2022-07-22T06:49:04;830.60;;;769.90;;
4043;SDS011;2036;51.578;7.108;2022-07-22T06:51:30;775.63;;;718.97;;
4043;SDS011;2036;51.578;7.108;2022-07-22T06:53:56;823.07;;;763.77;;
4043;SDS011;2036;51.578;7.108;2022-07-22T06:56:22;818.27;;;758.97;;
4043;SDS011;2036;51.578;7.108;2022-07-22T06:58:48;830.33;;;771.07;;
4043;SDS011;2036;51.578;7.108;2022-07-22T07:01:14;791.23;;;734.40;;
4043;SDS011;2036;51.578;7.108;2022-07-22T07:03:41;815.67;;;755.50;;
4043;SDS011;2036;51.578;7.108;2022-07-22T07:06:08;813.47;;;754.50;;
4043;SDS011;2036;51.578;7.108;2022-07-22T07:08:36;840.27;;;779.37;;
4043;SDS011;2036;51.578;7.108;2022-07-22T07:11:04;865.70;;;803.03;;
4043;SDS011;2036;51.578;7.108;2022-07-22T07:13:30;842.73;;;782.47;;
4043;SDS011;2036;51.578;7.108;2022-07-22T07:15:58;785.30;;;727.77;;
4043;SDS011;2036;51.578;7.108;2022-07-22T07:18:24;816.53;;;759.27;;
4043;SDS011;2036;51.578;7.108;2022-07-22T07:20:50;792.37;;;735.53;;
4043;SDS011;2036;51.578;7.108;2022-07-22T07:23:15;799.03;;;741.90;;
4043;SDS011;2036;51.578;7.108;2022-07-22T07:25:42;768.20;;;712.93;;
4043;SDS011;2036;51.578;7.108;2022-07-22T07:28:08;798.67;;;740.40;;
4043;SDS011;2036;51.578;7.108;2022-07-22T07:30:34;793.97;;;736.53;;
4043;SDS011;2036;51.578;7.108;2022-07-22T07:33:00;820.60;;;761.73;;
4043;SDS011;2036;51.578;7.108;2022-07-22T07:35:27;807.00;;;749.77;;
4043;SDS011;2036;51.578;7.108;2022-07-22T07:37:53;800.10;;;743.53;;
4043;SDS011;2036;51.578;7.108;2022-07-22T07:40:19;827.67;;;768.90;;
4043;SDS011;2036;51.578;7.108;2022-07-22T07:42:45;798.67;;;741.63;;
4043;SDS011;2036;51.578;7.108;2022-07-22T07:45:11;807.27;;;750.23;;
4043;SDS011;2036;51.578;7.108;2022-07-22T07:47:38;841.40;;;781.40;;
4043;SDS011;2036;51.578;7.108;2022-07-22T07:50:04;838.00;;;778.73;;
4043;SDS011;2036;51.578;7.108;2022-07-22T07:52:36;837.37;;;777.53;;
4043;SDS011;2036;51.578;7.108;2022-07-22T07:55:07;844.37;;;784.37;;
4043;SDS011;2036;51.578;7.108;2022-07-22T07:57:34;840.97;;;781.73;;
4043;SDS011;2036;51.578;7.108;2022-07-22T08:00:01;847.17;;;787.90;;
4043;SDS011;2036;51.578;7.108;2022-07-22T08:02:31;836.30;;;775.83;;
4043;SDS011;2036;51.578;7.108;2022-07-22T08:04:58;831.13;;;770.87;;
4043;SDS011;2036;51.578;7.108;2022-07-22T08:07:28;848.07;;;786.23;;
4043;SDS011;2036;51.578;7.108;2022-07-22T08:09:54;848.93;;;787.53;;
4043;SDS011;2036;51.578;7.108;2022-07-22T08:12:20;865.83;;;804.03;;
4043;SDS011;2036;51.578;7.108;2022-07-22T08:14:46;834.80;;;774.70;;
4043;SDS011;2036;51.578;7.108;2022-07-22T08:17:12;814.73;;;756.63;;
4043;SDS011;2036;51.578;7.108;2022-07-22T08:19:38;858.73;;;796.90;;
4043;SDS011;2036;51.578;7.108;2022-07-22T08:22:04;837.40;;;776.97;;
4043;SDS011;2036;51.578;7.108;2022-07-22T08:24:30;831.50;;;770.90;;
4043;SDS011;2036;51.578;7.108;2022-07-22T08:26:55;819.97;;;759.80;;
4043;SDS011;2036;51.578;7.108;2022-07-22T08:29:21;852.57;;;790.70;;
4043;SDS011;2036;51.578;7.108;2022-07-22T08:31:47;815.07;;;756.60;;
4043;SDS011;2036;51.578;7.108;2022-07-22T08:34:13;771.40;;;715.13;;
4043;SDS011;2036;51.578;7.108;2022-07-22T08:36:41;768.40;;;711.73;;
4043;SDS011;2036;51.578;7.108;2022-07-22T08:39:07;770.33;;;713.77;;
4043;SDS011;2036;51.578;7.108;2022-07-22T08:41:34;687.70;;;635.80;;
4043;SDS011;2036;51.578;7.108;2022-07-22T08:44:04;700.67;;;649.57;;
4043;SDS011;2036;51.578;7.108;2022-07-22T08:46:32;700.93;;;649.90;;
4043;SDS011;2036;51.578;7.108;2022-07-22T08:48:58;690.07;;;638.50;;
4043;SDS011;2036;51.578;7.108;2022-07-22T08:51:26;735.97;;;681.30;;
4043;SDS011;2036;51.578;7.108;2022-07-22T08:53:53;782.30;;;725.50;;
4043;SDS011;2036;51.578;7.108;2022-07-22T08:56:22;758.93;;;703.37;;
4043;SDS011;2036;51.578;7.108;2022-07-22T08:58:49;740.30;;;685.50;;
4043;SDS011;2036;51.578;7.108;2022-07-22T09:01:16;780.40;;;723.70;;
4043;SDS011;2036;51.578;7.108;2022-07-22T09:03:43;731.60;;;677.43;;
4043;SDS011;2036;51.578;7.108;2022-07-22T09:06:11;747.00;;;692.27;;
4043;SDS011;2036;51.578;7.108;2022-07-22T09:08:51;753.07;;;697.47;;
4043;SDS011;2036;51.578;7.108;2022-07-22T09:11:31;737.00;;;682.23;;
4043;SDS011;2036;51.578;7.108;2022-07-22T09:13:59;753.00;;;698.63;;
4043;SDS011;2036;51.578;7.108;2022-07-22T09:16:41;757.50;;;703.10;;
4043;SDS011;2036;51.578;7.108;2022-07-22T09:19:13;718.43;;;666.43;;
4043;SDS011;2036;51.578;7.108;2022-07-22T09:21:40;716.97;;;664.90;;
4043;SDS011;2036;51.578;7.108;2022-07-22T09:26:59;718.03;;;665.63;;
4043;SDS011;2036;51.578;7.108;2022-07-22T09:29:26;716.30;;;664.10;;
4043;SDS011;2036;51.578;7.108;2022-07-22T09:31:52;722.93;;;669.67;;
4043;SDS011;2036;51.578;7.108;2022-07-22T09:34:28;726.17;;;673.40;;
4043;SDS011;2036;51.578;7.108;2022-07-22T09:36:58;718.03;;;665.27;;
4043;SDS011;2036;51.578;7.108;2022-07-22T09:39:27;722.10;;;669.07;;
4043;SDS011;2036;51.578;7.108;2022-07-22T09:41:56;726.77;;;672.70;;
4043;SDS011;2036;51.578;7.108;2022-07-22T09:44:32;741.90;;;686.47;;
4043;SDS011;2036;51.578;7.108;2022-07-22T09:46:59;670.87;;;621.30;;
4043;SDS011;2036;51.578;7.108;2022-07-22T09:49:36;726.70;;;674.03;;
4043;SDS011;2036;51.578;7.108;2022-07-22T09:52:04;765.97;;;711.30;;
4043;SDS011;2036;51.578;7.108;2022-07-22T09:54:32;713.10;;;661.20;;
4043;SDS011;2036;51.578;7.108;2022-07-22T09:57:02;699.57;;;648.70;;
4043;SDS011;2036;51.578;7.108;2022-07-22T09:59:28;712.83;;;660.23;;
4043;SDS011;2036;51.578;7.108;2022-07-22T10:01:54;703.33;;;652.37;;
4043;SDS011;2036;51.578;7.108;2022-07-22T10:04:23;792.53;;;735.97;;
4043;SDS011;2036;51.578;7.108;2022-07-22T10:06:52;715.63;;;663.70;;
4043;SDS011;2036;51.578;7.108;2022-07-22T10:09:19;722.20;;;670.17;;
4043;SDS011;2036;51.578;7.108;2022-07-22T10:11:46;744.57;;;690.37;;
4043;SDS011;2036;51.578;7.108;2022-07-22T10:14:13;731.67;;;678.30;;
4043;SDS011;2036;51.578;7.108;2022-07-22T10:16:43;733.00;;;678.87;;
4043;SDS011;2036;51.578;7.108;2022-07-22T10:19:09;751.43;;;697.33;;
4043;SDS011;2036;51.578;7.108;2022-07-22T10:21:36;730.87;;;677.67;;
4043;SDS011;2036;51.578;7.108;2022-07-22T10:24:13;691.53;;;640.23;;
4043;SDS011;2036;51.578;7.108;2022-07-22T10:29:23;734.20;;;680.23;;
4043;SDS011;2036;51.578;7.108;2022-07-22T10:34:40;709.93;;;657.00;;
4043;SDS011;2036;51.578;7.108;2022-07-22T10:41:07;730.07;;;676.73;;
4043;SDS011;2036;51.578;7.108;2022-07-22T10:43:15;732.87;;;679.10;;
4043;SDS011;2036;51.578;7.108;2022-07-22T10:46:16;708.33;;;656.93;;
4043;SDS011;2036;51.578;7.108;2022-07-22T10:51:35;721.67;;;668.67;;
4043;SDS011;2036;51.578;7.108;2022-07-22T10:53:57;688.73;;;638.20;;
4043;SDS011;2036;51.578;7.108;2022-07-22T10:56:36;666.27;;;617.27;;
4043;SDS011;2036;51.578;7.108;2022-07-22T10:59:13;654.70;;;606.07;;
4043;SDS011;2036;51.578;7.108;2022-07-22T11:01:42;707.97;;;657.60;;
4043;SDS011;2036;51.578;7.108;2022-07-22T11:04:18;698.60;;;648.23;;
4043;SDS011;2036;51.578;7.108;2022-07-22T11:06:47;635.30;;;588.03;;
4043;SDS011;2036;51.578;7.108;2022-07-22T11:09:17;623.43;;;576.07;;
4043;SDS011;2036;51.578;7.108;2022-07-22T11:11:48;507.57;;;467.30;;
4043;SDS011;2036;51.578;7.108;2022-07-22T11:16:56;443.37;;;406.63;;
4043;SDS011;2036;51.578;7.108;2022-07-22T11:19:33;621.07;;;574.27;;
4043;SDS011;2036;51.578;7.108;2022-07-22T11:22:07;594.73;;;549.27;;
4043;SDS011;2036;51.578;7.108;2022-07-22T11:24:35;535.27;;;494.50;;
4043;SDS011;2036;51.578;7.108;2022-07-22T11:27:02;305.90;;;278.13;;
4043;SDS011;2036;51.578;7.108;2022-07-22T11:29:31;188.57;;;146.60;;
4043;SDS011;2036;51.578;7.108;2022-07-22T11:32:13;248.43;;;223.47;;
4043;SDS011;2036;51.578;7.108;2022-07-22T11:34:41;197.60;;;169.00;;
4043;SDS011;2036;51.578;7.108;2022-07-22T11:37:13;261.90;;;235.90;;
4043;SDS011;2036;51.578;7.108;2022-07-22T11:39:41;344.53;;;316.53;;
4043;SDS011;2036;51.578;7.108;2022-07-22T11:42:09;376.77;;;346.77;;
4043;SDS011;2036;51.578;7.108;2022-07-22T11:44:36;393.90;;;363.50;;
4043;SDS011;2036;51.578;7.108;2022-07-22T11:47:04;446.90;;;413.10;;
4043;SDS011;2036;51.578;7.108;2022-07-22T11:49:33;296.07;;;270.47;;
4043;SDS011;2036;51.578;7.108;2022-07-22T11:52:02;365.03;;;335.57;;
4043;SDS011;2036;51.578;7.108;2022-07-22T11:54:32;278.03;;;252.20;;
4043;SDS011;2036;51.578;7.108;2022-07-22T11:56:58;479.97;;;443.60;;
4043;SDS011;2036;51.578;7.108;2022-07-22T11:59:26;296.70;;;270.17;;
4043;SDS011;2036;51.578;7.108;2022-07-22T12:01:51;427.83;;;395.27;;
4043;SDS011;2036;51.578;7.108;2022-07-22T12:04:24;388.87;;;357.93;;
4043;SDS011;2036;51.578;7.108;2022-07-22T12:06:52;298.73;;;272.67;;
4043;SDS011;2036;51.578;7.108;2022-07-22T12:09:26;418.13;;;386.17;;
4043;SDS011;2036;51.578;7.108;2022-07-22T12:12:00;404.33;;;373.10;;
4043;SDS011;2036;51.578;7.108;2022-07-22T12:14:30;378.30;;;348.30;;
4043;SDS011;2036;51.578;7.108;2022-07-22T12:19:32;473.63;;;438.43;;
4043;SDS011;2036;51.578;7.108;2022-07-22T12:22:02;505.27;;;467.60;;
4043;SDS011;2036;51.578;7.108;2022-07-22T12:24:33;541.10;;;501.23;;
4043;SDS011;2036;51.578;7.108;2022-07-22T12:27:07;436.43;;;401.40;;
4043;SDS011;2036;51.578;7.108;2022-07-22T12:32:04;447.87;;;412.37;;
4043;SDS011;2036;51.578;7.108;2022-07-22T12:34:39;467.37;;;430.63;;
4043;SDS011;2036;51.578;7.108;2022-07-22T12:37:18;442.60;;;407.67;;
4043;SDS011;2036;51.578;7.108;2022-07-22T12:45:35;420.67;;;387.00;;
4043;SDS011;2036;51.578;7.108;2022-07-22T12:53:09;534.37;;;492.77;;
4043;SDS011;2036;51.578;7.108;2022-07-22T12:58:05;560.70;;;518.87;;
4043;SDS011;2036;51.578;7.108;2022-07-22T13:00:33;579.63;;;536.43;;
4043;SDS011;2036;51.578;7.108;2022-07-22T13:03:05;576.37;;;532.93;;
4043;SDS011;2036;51.578;7.108;2022-07-22T13:05:32;547.70;;;506.80;;
4043;SDS011;2036;51.578;7.108;2022-07-22T13:07:59;563.00;;;520.63;;
4043;SDS011;2036;51.578;7.108;2022-07-22T13:10:26;543.10;;;501.80;;
4043;SDS011;2036;51.578;7.108;2022-07-22T13:12:53;549.77;;;508.93;;
4043;SDS011;2036;51.578;7.108;2022-07-22T13:15:20;521.70;;;482.07;;
4043;SDS011;2036;51.578;7.108;2022-07-22T13:17:47;557.37;;;515.27;;
4043;SDS011;2036;51.578;7.108;2022-07-22T13:20:16;619.03;;;573.10;;
4043;SDS011;2036;51.578;7.108;2022-07-22T13:22:43;496.47;;;458.97;;
4043;SDS011;2036;51.578;7.108;2022-07-22T13:25:10;585.53;;;540.93;;
4043;SDS011;2036;51.578;7.108;2022-07-22T13:27:37;515.07;;;474.97;;
4043;SDS011;2036;51.578;7.108;2022-07-22T13:30:03;618.77;;;573.30;;
4043;SDS011;2036;51.578;7.108;2022-07-22T13:32:30;475.33;;;436.63;;
4043;SDS011;2036;51.578;7.108;2022-07-22T13:34:56;556.17;;;513.43;;
4043;SDS011;2036;51.578;7.108;2022-07-22T13:37:22;533.20;;;492.60;;
4043;SDS011;2036;51.578;7.108;2022-07-22T13:39:48;464.13;;;428.80;;
4043;SDS011;2036;51.578;7.108;2022-07-22T13:42:14;537.00;;;497.13;;
4043;SDS011;2036;51.578;7.108;2022-07-22T13:44:45;440.57;;;406.33;;
4043;SDS011;2036;51.578;7.108;2022-07-22T13:47:11;474.33;;;440.07;;
4043;SDS011;2036;51.578;7.108;2022-07-22T13:49:37;397.70;;;365.97;;
4043;SDS011;2036;51.578;7.108;2022-07-22T13:52:03;422.60;;;389.63;;
4043;SDS011;2036;51.578;7.108;2022-07-22T13:54:30;386.33;;;355.50;;
4043;SDS011;2036;51.578;7.108;2022-07-22T13:56:56;377.17;;;346.43;;
4043;SDS011;2036;51.578;7.108;2022-07-22T13:59:24;559.77;;;519.37;;
4043;SDS011;2036;51.578;7.108;2022-07-22T14:01:50;512.60;;;472.63;;
4043;SDS011;2036;51.578;7.108;2022-07-22T14:04:17;410.60;;;376.97;;
4043;SDS011;2036;51.578;7.108;2022-07-22T14:06:43;427.03;;;392.73;;
4043;SDS011;2036;51.578;7.108;2022-07-22T14:09:09;349.67;;;320.20;;
4043;SDS011;2036;51.578;7.108;2022-07-22T14:11:35;361.77;;;331.43;;
4043;SDS011;2036;51.578;7.108;2022-07-22T14:14:01;388.47;;;357.43;;
4043;SDS011;2036;51.578;7.108;2022-07-22T14:16:27;396.43;;;364.70;;
4043;SDS011;2036;51.578;7.108;2022-07-22T14:18:59;461.47;;;425.27;;
4043;SDS011;2036;51.578;7.108;2022-07-22T14:21:31;376.70;;;346.07;;
4043;SDS011;2036;51.578;7.108;2022-07-22T14:23:58;440.07;;;405.10;;
4043;SDS011;2036;51.578;7.108;2022-07-22T14:26:24;341.77;;;313.23;;
4043;SDS011;2036;51.578;7.108;2022-07-22T14:28:50;526.93;;;487.13;;
4043;SDS011;2036;51.578;7.108;2022-07-22T14:31:17;418.03;;;383.57;;
4043;SDS011;2036;51.578;7.108;2022-07-22T14:33:43;457.00;;;420.30;;
4043;SDS011;2036;51.578;7.108;2022-07-22T14:36:09;483.70;;;445.77;;
4043;SDS011;2036;51.578;7.108;2022-07-22T14:38:35;396.73;;;363.77;;
4043;SDS011;2036;51.578;7.108;2022-07-22T14:41:01;550.77;;;509.93;;
4043;SDS011;2036;51.578;7.108;2022-07-22T14:43:27;354.43;;;325.30;;
4043;SDS011;2036;51.578;7.108;2022-07-22T14:45:53;558.67;;;516.57;;
4043;SDS011;2036;51.578;7.108;2022-07-22T14:48:19;559.30;;;515.87;;
4043;SDS011;2036;51.578;7.108;2022-07-22T14:50:45;572.93;;;529.53;;
4043;SDS011;2036;51.578;7.108;2022-07-22T14:53:11;519.97;;;479.67;;
4043;SDS011;2036;51.578;7.108;2022-07-22T14:55:38;493.17;;;454.07;;
4043;SDS011;2036;51.578;7.108;2022-07-22T14:58:05;454.63;;;418.73;;